Airfield :
LOGIN :

Register | Disclaimer

   EN    FR    IT 

 










Legend :    VFR   Marginal VFR   IFR   Intensive IFR   Very Intensive IFR
Visi :
Ceiling :
>= 8 km
>= 3000ft
5 to 8 km
1000 to 3000 ft
1500m to 5 km
500 to 1000 ft
800 to 1500m
200 to 500 ft
< 800m
< 200 ft
Symbols :   Thunderstorms  Fog  Heavy snow  Heavy precipitations  Wind > 20 kt
SIGMETs :     Misc.  Thunderstorms  Icing  Turbulence  Mountain Waves  Volcanic Ashes






- Airport Elevation : 1516 ft
- IATA code : AGB


EDMA - Augsburg

CURRENT METAR :
  • 181220Z 26004KT 230V020 9999 SCT046 08/03 Q1015

EXPIRED METARs :
  • 181150Z 27007KT 9999 OVC026 06/03 Q1015
  • 181120Z 25006KT 9999 FEW022 BKN027 05/02 Q1015
  • 181050Z 28007KT 9999 FEW019 BKN026 BKN041 05/01 Q1015
  • 181020Z 31006KT 250V040 9999 -SHRA SCT019TCU 05/02 Q1014
  • 180950Z 36005KT 330V050 9999 -SHRA FEW014 SCT016 BKN040TCU 05/02 Q1014
  • 180920Z 36005KT 330V030 9999 -SHRA SCT012 BKN045TCU 05/02 Q1014
  • 180850Z 30007KT 270V330 6000 -SHRA OVC011TCU 03/01 Q1014
  • 180820Z 33006KT 9999 SCT009 BKN011 OVC024 04/03 Q1014
  • 180750Z 33005KT 300V360 9999 OVC007 04/03 Q1013

TAF TAF EDMA
Valid from the 18 at 12:00 until the 18 at 21:00 UTC


181100Z 1812/1821 34007KT 9999 FEW014
TEMPO 1812/1817 SHRA BKN020CB
PROB30
TEMPO 1812/1817 TSGS BKN012 BKN020CB
BECMG 1816/1818 VRB03KT



MET'MAP, your aeronautical weather chart ! - Copyright ORBIFLY December 2007 - Disclaimer

ORBIFLY MET'MAP TEAM :

Programming & Development : Alexandra Zaïnal
Original concept : Baudouin d'Aumeries
Technical & hardware support : Manuel Goepfert
Assistance : Marc-Olivier Méhu




SOURCES & CREDITS :

   NOAA